Impacts TAF Board
For situational awareness. Not to be used for flight planning purposes.
IDs:

KDCA - Washington/National, VA, US

Issued at 1720 UTC 01 Mar 2021
Updated at 1729 UTC 01 Mar 2021
Potential Impact None Slight Moderate High
Time1652Z 01/18Z 01/19Z 01/20Z 01/21Z 01/22Z 01/23Z 02/00Z 02/01Z 02/02Z 02/03Z 02/04Z 02/05Z 02/06Z>>
Type OBS PRVL PRVL PRVL PRVL PRVL PRVL PRVL PRVL PRVL PRVL PRVL PRVL PRVL
VIS 8 >6 >6 >6 >6 >6 >6 >6 >6 >6 >6 >6 >6 >6
CIG 30 70 200 200 200 200 -- -- -- -- -- -- -- --
Cover OVC OVC BKN BKN BKN BKN SCT SCT SCT SCT SCT SCT SCT SCT
FltCat MVFR VFR VFR VFR VFR VFR VFR VFR VFR VFR VFR VFR VFR VFR
WX -DZ -- -- -- -- -- -- -- -- -- -- -- -- --
WDir 320 320 310 310 310 310 310 310 310 310 310 310 310 310
WSpd 14 18 17 17 17 17 16 16 16 16 16 16 16 16
WGst 27 36 36 36 36 36 35 35 35 35 35 35 35 35
Raw TAF
KDCA 011720Z 0118/0224 32018G36KT P6SM SCT030 OVC070
  FM011900 31017G36KT P6SM SCT080 BKN200
  FM012300 31016G35KT P6SM FEW050 SCT250
  FM021600 32013G27KT P6SM FEW250
  FM022100 28010G20KT P6SM FEW250
  FM022300 20007KT P6SM FEW250


Raw METAR
KDCA 011652Z 32014G27KT 8SM -DZ FEW015 BKN030 OVC042 11/08 A2978 RMK AO2 PK WND 31028/1636 RAB03E33DZB50 SLP085 P0003 T01060078
KDCA 011639Z 32014G28KT 8SM FEW014 SCT018 OVC040 11/08 A2977 RMK AO2 PK WND 31028/1636 RAB03E33 P0003 T01110078
KDCA 011628Z 33011G21KT 8SM -RA FEW010 BKN016 OVC046 11/09 A2976 RMK AO2 RAB03 P0003 T01110094
KDCA 011613Z 31011KT 4SM -RA BR SCT005 BKN011 OVC034 11/10 A2975 RMK AO2 RAB03 VIS S 2 1/2 P0003 T01110100
KDCA 011605Z 32008G19KT 300V360 4SM R01/5000VP6000FT RA BR BKN005 BKN009 OVC034 11/09 A2975 RMK AO2 RAB03 VIS S 2 1/2 P0001 T01060094
KDCA 011552Z 20005KT 5SM BR BKN005 OVC090 09/08 A2974 RMK AO2 SLP069 T00890083
KDCA 011452Z 16004KT 6SM BR BKN005 OVC080 08/08 A2974 RMK AO2 RAE37 SLP070 P0001 60010 T00830078 55006
KDCA 011441Z 20003KT 6SM BR BKN005 OVC090 09/08 A2976 RMK AO2 RAE37 P0001 T00890083

METAR Board
Radar Display
Forecast Discussion
For situational awareness. Not to be used for flight planning purposes.